Metar Cercanos

 

LEPA - Palma De Mallorc, Spain
Distance from station: ONO 38km
Actualización: Mon, 27-May-2024 10:00pm CEST
Despejado
Despejado
 Viento del ENE
Viento: ENE 31 km/h
Temperatura: 22°C
Rocío: 18°C
Humedad: 78%
Barómetro: 1016 hPa
Resumen: Despejado
Visibility: greater than 10 km
2024/05/27 20:00 LEPA 272000Z 07017KT CAVOK 22/18 Q1016 NOSIG
LEMH - Mahon/Menorca Is, Spain
Distance from station: ENE 105km
Actualización: Mon, 27-May-2024 10:00pm CEST
Few Clouds
Few Clouds
 Viento del NNE
Viento: NNE 22 km/h
Temperatura: 20°C
Rocío: 16°C
Humedad: 78%
Barómetro: 1017 hPa
Clouds: Few Clouds
Visibility: 10 km
Cloud details: Few Clouds 610 m
2024/05/27 20:00 LEMH 272000Z 02012KT 9999 FEW020 20/16 Q1017
 
LEIB - Ibiza/Es Codola, Spain
Distance from station: OSO 165km
Actualización: Mon, 27-May-2024 10:00pm CEST
Despejado
Despejado
 Viento del varies
Viento: varies 4 km/h
Temperatura: 22°C
Rocío: 17°C
Humedad: 73%
Barómetro: 1016 hPa
Resumen: Despejado
Visibility: greater than 10 km
2024/05/27 20:00 LEIB 272000Z VRB02KT CAVOK 22/17 Q1016 NOSIG
LEBL - Barcelona Airpor, Spain
Distance from station: NNO 225km
Actualización: Mon, 27-May-2024 10:00pm CEST
Few Clouds
Few Clouds
 Viento del E
Viento: E 11 km/h
Temperatura: 19°C
Rocío: 15°C
Humedad: 78%
Barómetro: 1019 hPa
Clouds: Few Clouds
Visibility: 10 km
Cloud details: Few Clouds 914 m
2024/05/27 20:00 LEBL 272000Z 09006KT 060V120 9999 FEW030 19/15 Q1019 NOSIG
 
LEVC - Valencia (civ/Mi, Spain
Distance from station: NO 188km
Actualización: Mon, 27-May-2024 10:00pm CEST
Few Clouds
Few Clouds
 Viento del E
Viento: E 9 km/h
Temperatura: 21°C
Rocío: 16°C
Humedad: 73%
Barómetro: 1018 hPa
Clouds: Few Clouds
Visibility: 10 km
Cloud details: Few Clouds 457 m
2024/05/27 20:00 LEVC 272000Z 09005KT 050V120 9999 FEW015 21/16 Q1018 NOSIG
LEGE - Gerona/Costa Bra, Spain
Distance from station: N 276km
Actualización: Mon, 27-May-2024 10:00pm CEST
Muy nuboso
Muy nuboso
 Viento del NE
Viento: NE 20 km/h
Temperatura: 18°C
Rocío: 11°C
Humedad: 64%
Barómetro: 1019 hPa
Clouds: Muy nuboso
Visibility: 10 km
Cloud details: Parcialmente nuboso 1372 m
Muy nuboso 2286 m
2024/05/27 20:00 LEGE 272000Z 04011KT 9999 SCT045 BKN075 18/11 Q1019 NOSIG
 
LEAL - Alicante/El Alte, Spain
Distance from station: OSO 344km
Actualización: Mon, 27-May-2024 10:00pm CEST
Despejado
Despejado
 Viento del ENE
Viento: ENE 7 km/h
Temperatura: 21°C
Rocío: 18°C
Humedad: 83%
Barómetro: 1016 hPa
Resumen: Despejado
Visibility: greater than 10 km
2024/05/27 20:00 LEAL 272000Z 07004KT 020V100 CAVOK 21/18 Q1016 NOSIG
LEAM - Almeria Airport, Spain
Distance from station: SSO 56km
Actualización: Mon, 27-May-2024 10:00pm CEST
Despejado
Despejado
 Viento del varies
Viento: varies 4 km/h
Temperatura: 22°C
Rocío: 18°C
Humedad: 78%
Barómetro: 1016 hPa
Resumen: Despejado
Visibility: greater than 10 km
2024/05/27 20:00 LEAM 272000Z VRB02KT CAVOK 22/18 Q1016
 
LEZG - Zaragoza (mil/Ci, Spain
Distance from station: NO 431km
Actualización: Mon, 27-May-2024 10:00pm CEST
Despejado
Despejado
 Viento del ONO
Viento: ONO 30 km/h
Temperatura: 18°C
Rocío: 9°C
Humedad: 56%
Resumen: Despejado
Visibility: greater than 10 km
2024/05/27 20:00 LEZG 272000Z 29016KT 260V320 CAVOK 18/09 Q102
LEMD - Madrid/Barajas, Spain
Distance from station: ONO 234km
Actualización: Mon, 27-May-2024 10:00pm CEST
Despejado
Despejado
 Viento del NNO
Viento: NNO 19 km/h
Temperatura: 25°C
Rocío: 8°C
Humedad: 34%
Barómetro: 1017 hPa
Resumen: Despejado
Visibility: greater than 10 km
2024/05/27 20:00 LEMD 272000Z 34010KT 310V010 CAVOK 25/08 Q1017 NOSIG
 
LEGR - Granada Airport, Spain
Distance from station: OSO 62km
Actualización: Mon, 27-May-2024 10:00pm CEST
Few Clouds
Few Clouds
 Viento del varies
Viento: varies 4 km/h
Temperatura: 25°C
Rocío: 5°C
Humedad: 28%
Barómetro: 1017 hPa
Clouds: Few Clouds
Visibility: 10 km
Cloud details: Few Clouds 1829 m
2024/05/27 20:00 LEGR 272000Z VRB02KT 9999 FEW060 25/05 Q1017
LEMG - Malaga (civ/Mil), Spain
Distance from station: OSO 227km
Actualización: Mon, 27-May-2024 10:00pm CEST
Few Clouds
Few Clouds
 Viento del E
Viento: E 15 km/h
Temperatura: 20°C
Rocío: 18°C
Humedad: 88%
Barómetro: 1016 hPa
Clouds: Few Clouds
Visibility: 10 km
Cloud details: Few Clouds 610 m
2024/05/27 20:00 LEMG 272000Z 09008KT 060V120 9999 FEW020 20/18 Q1016 NOSIG
 
LEZL - Sevilla (civ/Mil, Spain
Distance from station: S 318km
Actualización: Mon, 27-May-2024 10:00pm CEST
Despejado
Despejado
 Viento del SSO
Viento: SSO 15 km/h
Temperatura: 24°C
Rocío: 8°C
Humedad: 36%
Barómetro: 1015 hPa
Resumen: Despejado
Visibility: greater than 10 km
2024/05/27 20:00 LEZL 272000Z 21008KT 170V250 CAVOK 24/08 Q1015 NOSIG
LEVT - Vitoria, Spain
Distance from station: NO 226km
Actualización: Mon, 27-May-2024 10:00pm CEST
Parcialmente nuboso
Parcialmente nuboso
 Viento del NE
Viento: NE 9 km/h
Temperatura: 11°C
Rocío: 9°C
Humedad: 88%
Barómetro: 1024 hPa
Clouds: Parcialmente nuboso
Visibility: 10 km
Cloud details: Few Clouds 396 m
Parcialmente nuboso 914 m
2024/05/27 20:00 LEVT 272000Z 04005KT 9999 FEW013 SCT030 11/09 Q1024
 
LEBB - Bilbao/Sondica, Spain
Distance from station: NNO 235km
Actualización: Mon, 27-May-2024 10:00pm CEST
Parcialmente nuboso
Parcialmente nuboso
 Viento del NNE
Viento: NNE 6 km/h
Temperatura: 15°C
Rocío: 11°C
Humedad: 77%
Barómetro: 1025 hPa
Clouds: Parcialmente nuboso
Visibility: 10 km
Cloud details: Few Clouds 701 m
Parcialmente nuboso 1280 m
2024/05/27 20:00 LEBB 272000Z 02003KT 360V060 9999 FEW023 SCT042 15/11 Q1025 NOSIG
LESO - San Sebastian/Fu, Spain
Distance from station: N 231km
Actualización: Mon, 27-May-2024 10:00pm CEST
Despejado
Despejado
 Viento del varies
Viento: varies 4 km/h
Temperatura: 15°C
Rocío: 11°C
Humedad: 77%
Barómetro: 1024 hPa
Resumen: Despejado
Visibility: greater than 10 km
2024/05/27 20:00 LESO 272000Z AUTO VRB02KT CAVOK 15/11 Q1024
 
LEVD - Valladolid(Mil/C, Spain
Distance from station: ONO 239km
Actualización: Mon, 27-May-2024 10:00pm CEST
Despejado
Despejado
 Viento del ENE
Viento: ENE 11 km/h
Temperatura: 14°C
Rocío: 9°C
Humedad: 72%
Barómetro: 1021 hPa
Resumen: Despejado
Visibility: greater than 10 km
2024/05/27 20:00 LEVD 272000Z AUTO 07006KT CAVOK 14/09 Q1021
LESA - Salamanca (civ/M, Spain
Distance from station: ONO 349km
Actualización: Mon, 27-May-2024 10:00pm CEST
Despejado
Despejado
 Viento del NNE
Viento: NNE 11 km/h
Temperatura: 18°C
Rocío: 8°C
Humedad: 52%
Barómetro: 1020 hPa
Resumen: Despejado
Visibility: greater than 10 km
2024/05/27 20:00 LESA 272000Z AUTO 03006KT CAVOK 18/08 Q1020
 
LEXJ - Santander/Paraya, Spain
Distance from station: NNO 247km
Actualización: Mon, 27-May-2024 10:00pm CEST
Few Clouds
Few Clouds
 Viento del varies
Viento: varies 4 km/h
Temperatura: 15°C
Rocío: 10°C
Humedad: 72%
Barómetro: 1025 hPa
Clouds: Few Clouds
Visibility: 10 km
Cloud details: Few Clouds 1158 m
2024/05/27 20:00 LEXJ 272000Z VRB02KT 9999 FEW038 15/10 Q1025
LEAS - Asturias/Aviles, Spain
Distance from station: NO 214km
Actualización: Mon, 27-May-2024 10:00pm CEST
Few Clouds
Few Clouds
 Viento del ENE
Viento: ENE 4 km/h
Temperatura: 13°C
Rocío: 11°C
Humedad: 88%
Barómetro: 1024 hPa
Clouds: Few Clouds
Visibility: 10 km
Cloud details: Few Clouds 914 m
2024/05/27 20:00 LEAS 272000Z 07002KT 9999 FEW030 13/11 Q1024 NOSIG
 
LECO - La Coruna/Alvedr, Spain
Distance from station: ONO 222km
Actualización: Mon, 27-May-2024 10:00pm CEST
Despejado
Despejado
 Viento del N
Viento: N 9 km/h
Temperatura: 14°C
Rocío: 9°C
Humedad: 72%
Barómetro: 1024 hPa
Resumen: Despejado
Visibility: greater than 10 km
2024/05/27 20:00 LECO 272000Z 35005KT 300V040 CAVOK 14/09 Q1024 NOSIG
LEVX - Vigo/Peinador, Spain
Distance from station: O 214km
Actualización: Mon, 27-May-2024 10:00pm CEST
Despejado
Despejado
 Viento del O
Viento: O 13 km/h
Temperatura: 15°C
Rocío: 11°C
Humedad: 77%
Barómetro: 1022 hPa
Resumen: Despejado
Visibility: greater than 10 km
2024/05/27 20:00 LEVX 272000Z 28007KT CAVOK 15/11 Q1022 NOSIG